sensor_id;sensor_type;location;lat;lon;timestamp;pressure;altitude;pressure_sealevel;temperature;humidity
60417;BME280;46263;44.726;10.396;2023-01-29T00:01:24;101272.72;;;5.68;55.44
60417;BME280;46263;44.726;10.396;2023-01-29T00:03:50;101277.03;;;5.69;55.79
60417;BME280;46263;44.726;10.396;2023-01-29T00:06:16;101276.13;;;5.72;55.58
60417;BME280;46263;44.726;10.396;2023-01-29T00:08:42;101279.63;;;5.73;56.19
60417;BME280;46263;44.726;10.396;2023-01-29T00:11:08;101287.81;;;5.76;55.94
60417;BME280;46263;44.726;10.396;2023-01-29T00:13:35;101281.34;;;5.79;55.99
60417;BME280;46263;44.726;10.396;2023-01-29T00:16:01;101288.44;;;5.80;55.34
60417;BME280;46263;44.726;10.396;2023-01-29T00:18:27;101279.16;;;5.83;55.35
60417;BME280;46263;44.726;10.396;2023-01-29T00:20:54;101281.50;;;5.85;55.42
60417;BME280;46263;44.726;10.396;2023-01-29T00:23:19;101271.47;;;5.87;55.55
60417;BME280;46263;44.726;10.396;2023-01-29T00:25:45;101281.78;;;5.78;55.55
60417;BME280;46263;44.726;10.396;2023-01-29T00:28:11;101280.41;;;5.82;55.52
60417;BME280;46263;44.726;10.396;2023-01-29T00:30:37;101283.47;;;5.84;55.65
60417;BME280;46263;44.726;10.396;2023-01-29T00:33:03;101281.19;;;5.83;55.21
60417;BME280;46263;44.726;10.396;2023-01-29T00:35:29;101284.13;;;5.79;55.36
60417;BME280;46263;44.726;10.396;2023-01-29T00:37:56;101282.59;;;5.78;55.09
60417;BME280;46263;44.726;10.396;2023-01-29T00:40:21;101286.91;;;5.79;55.23
60417;BME280;46263;44.726;10.396;2023-01-29T00:42:48;101281.94;;;5.83;55.32
60417;BME280;46263;44.726;10.396;2023-01-29T00:45:33;101286.91;;;5.79;55.25
60417;BME280;46263;44.726;10.396;2023-01-29T00:48:01;101295.22;;;5.79;55.52
60417;BME280;46263;44.726;10.396;2023-01-29T00:50:27;101294.28;;;5.73;56.12
60417;BME280;46263;44.726;10.396;2023-01-29T00:52:53;101287.97;;;5.73;55.59
60417;BME280;46263;44.726;10.396;2023-01-29T00:55:19;101299.84;;;5.73;55.70
60417;BME280;46263;44.726;10.396;2023-01-29T00:57:45;101297.06;;;5.73;55.79
60417;BME280;46263;44.726;10.396;2023-01-29T01:00:14;101295.66;;;5.78;55.59
60417;BME280;46263;44.726;10.396;2023-01-29T01:02:40;101289.19;;;5.81;55.76
60417;BME280;46263;44.726;10.396;2023-01-29T01:05:24;101294.25;;;5.82;56.04
60417;BME280;46263;44.726;10.396;2023-01-29T01:07:51;101293.66;;;5.87;55.30
60417;BME280;46263;44.726;10.396;2023-01-29T01:10:20;101297.66;;;5.86;55.89
60417;BME280;46263;44.726;10.396;2023-01-29T01:12:48;101304.75;;;5.87;56.05
60417;BME280;46263;44.726;10.396;2023-01-29T01:15:15;101303.34;;;5.92;55.79
60417;BME280;46263;44.726;10.396;2023-01-29T01:17:41;101304.41;;;5.94;55.26
60417;BME280;46263;44.726;10.396;2023-01-29T01:20:08;101304.41;;;5.94;55.21
60417;BME280;46263;44.726;10.396;2023-01-29T01:22:33;101304.41;;;5.94;56.50
60417;BME280;46263;44.726;10.396;2023-01-29T01:25:00;101311.66;;;5.92;56.54
60417;BME280;46263;44.726;10.396;2023-01-29T01:27:25;101303.53;;;5.79;56.69
60417;BME280;46263;44.726;10.396;2023-01-29T01:29:51;101305.66;;;5.84;56.46
60417;BME280;46263;44.726;10.396;2023-01-29T01:32:17;101303.66;;;5.76;56.79
60417;BME280;46263;44.726;10.396;2023-01-29T01:34:42;101307.22;;;5.76;56.91
60417;BME280;46263;44.726;10.396;2023-01-29T01:37:10;101309.53;;;5.78;57.09
60417;BME280;46263;44.726;10.396;2023-01-29T01:39:36;101313.97;;;5.75;57.07
60417;BME280;46263;44.726;10.396;2023-01-29T01:42:01;101310.94;;;5.73;57.52
60417;BME280;46263;44.726;10.396;2023-01-29T01:45:05;101296.13;;;5.67;57.07
60417;BME280;46263;44.726;10.396;2023-01-29T01:48:12;101299.69;;;5.68;57.30
60417;BME280;46263;44.726;10.396;2023-01-29T01:50:48;101308.75;;;5.68;57.26
60417;BME280;46263;44.726;10.396;2023-01-29T01:53:20;101309.56;;;5.60;57.41
60417;BME280;46263;44.726;10.396;2023-01-29T01:55:50;101305.56;;;5.61;57.26
60417;BME280;46263;44.726;10.396;2023-01-29T01:58:23;101306.00;;;5.59;57.08
60417;BME280;46263;44.726;10.396;2023-01-29T02:00:50;101308.81;;;5.50;57.41
60417;BME280;46263;44.726;10.396;2023-01-29T02:03:18;101300.31;;;5.54;57.42
60417;BME280;46263;44.726;10.396;2023-01-29T02:06:03;101305.09;;;5.53;57.25
60417;BME280;46263;44.726;10.396;2023-01-29T02:08:55;101297.56;;;5.54;57.71
60417;BME280;46263;44.726;10.396;2023-01-29T02:11:40;101312.53;;;5.39;57.83
60417;BME280;46263;44.726;10.396;2023-01-29T02:14:06;101314.25;;;5.36;57.77
60417;BME280;46263;44.726;10.396;2023-01-29T02:16:35;101315.31;;;5.30;58.09
60417;BME280;46263;44.726;10.396;2023-01-29T02:19:02;101308.53;;;5.31;58.09
60417;BME280;46263;44.726;10.396;2023-01-29T02:24:52;101316.22;;;5.27;58.35
60417;BME280;46263;44.726;10.396;2023-01-29T02:30:19;101305.31;;;5.23;58.12
60417;BME280;46263;44.726;10.396;2023-01-29T02:35:47;101318.41;;;5.14;58.62
60417;BME280;46263;44.726;10.396;2023-01-29T02:38:29;101315.63;;;5.14;59.00
60417;BME280;46263;44.726;10.396;2023-01-29T02:41:04;101320.25;;;5.17;58.84
60417;BME280;46263;44.726;10.396;2023-01-29T02:43:47;101323.63;;;5.12;59.05
60417;BME280;46263;44.726;10.396;2023-01-29T02:46:23;101327.34;;;5.09;58.95
60417;BME280;46263;44.726;10.396;2023-01-29T02:49:24;101331.63;;;5.10;59.00
60417;BME280;46263;44.726;10.396;2023-01-29T02:52:18;101337.63;;;5.08;58.01
60417;BME280;46263;44.726;10.396;2023-01-29T02:57:39;101334.09;;;4.99;58.87
60417;BME280;46263;44.726;10.396;2023-01-29T03:00:13;101334.53;;;4.97;58.67
60417;BME280;46263;44.726;10.396;2023-01-29T03:05:31;101327.34;;;5.00;58.87
60417;BME280;46263;44.726;10.396;2023-01-29T03:08:03;101335.34;;;4.98;59.40
60417;BME280;46263;44.726;10.396;2023-01-29T03:10:36;101333.47;;;4.95;59.29
60417;BME280;46263;44.726;10.396;2023-01-29T03:13:14;101336.88;;;4.99;59.53
60417;BME280;46263;44.726;10.396;2023-01-29T03:15:47;101337.16;;;5.01;59.08
60417;BME280;46263;44.726;10.396;2023-01-29T03:18:17;101343.00;;;4.94;59.72
60417;BME280;46263;44.726;10.396;2023-01-29T03:20:48;101348.25;;;4.92;59.86
60417;BME280;46263;44.726;10.396;2023-01-29T03:23:28;101341.47;;;4.93;59.76
60417;BME280;46263;44.726;10.396;2023-01-29T03:26:14;101345.19;;;4.99;59.02
60417;BME280;46263;44.726;10.396;2023-01-29T03:29:00;101346.72;;;5.00;59.43
60417;BME280;46263;44.726;10.396;2023-01-29T03:31:47;101351.31;;;4.94;59.08
60417;BME280;46263;44.726;10.396;2023-01-29T03:34:40;101349.19;;;4.98;58.63
60417;BME280;46263;44.726;10.396;2023-01-29T03:39:39;101347.31;;;4.95;58.65
60417;BME280;46263;44.726;10.396;2023-01-29T03:42:17;101345.94;;;4.90;59.68
60417;BME280;46263;44.726;10.396;2023-01-29T03:47:17;101339.28;;;4.52;60.14
60417;BME280;46263;44.726;10.396;2023-01-29T03:55:39;101338.22;;;4.68;59.64
60417;BME280;46263;44.726;10.396;2023-01-29T03:58:41;101330.84;;;4.82;59.34
60417;BME280;46263;44.726;10.396;2023-01-29T04:01:14;101336.06;;;4.89;58.80
60417;BME280;46263;44.726;10.396;2023-01-29T04:04:02;101344.22;;;4.93;58.49
60417;BME280;46263;44.726;10.396;2023-01-29T04:06:32;101338.25;;;4.94;59.13
60417;BME280;46263;44.726;10.396;2023-01-29T04:09:22;101340.09;;;4.97;58.72
60417;BME280;46263;44.726;10.396;2023-01-29T04:12:29;101338.69;;;5.02;59.06
60417;BME280;46263;44.726;10.396;2023-01-29T04:14:57;101332.41;;;5.01;58.97
60417;BME280;46263;44.726;10.396;2023-01-29T04:17:36;101337.47;;;5.03;58.87
60417;BME280;46263;44.726;10.396;2023-01-29T04:20:04;101336.88;;;4.99;59.36
60417;BME280;46263;44.726;10.396;2023-01-29T04:22:33;101330.09;;;5.00;58.48
60417;BME280;46263;44.726;10.396;2023-01-29T04:25:02;101333.16;;;5.02;57.95
60417;BME280;46263;44.726;10.396;2023-01-29T04:27:49;101324.41;;;4.94;58.01
60417;BME280;46263;44.726;10.396;2023-01-29T04:32:59;101329.78;;;4.89;57.90
60417;BME280;46263;44.726;10.396;2023-01-29T04:38:00;101339.94;;;4.92;57.76
60417;BME280;46263;44.726;10.396;2023-01-29T04:40:37;101336.72;;;4.93;58.17
60417;BME280;46263;44.726;10.396;2023-01-29T04:59:05;101364.53;;;4.81;58.17
60417;BME280;46263;44.726;10.396;2023-01-29T05:01:32;101362.53;;;4.81;58.31
60417;BME280;46263;44.726;10.396;2023-01-29T05:04:09;101364.06;;;4.82;57.96
60417;BME280;46263;44.726;10.396;2023-01-29T05:06:38;101373.44;;;4.85;57.95
60417;BME280;46263;44.726;10.396;2023-01-29T05:09:04;101372.53;;;4.79;58.19
60417;BME280;46263;44.726;10.396;2023-01-29T05:11:31;101370.84;;;4.81;58.32
60417;BME280;46263;44.726;10.396;2023-01-29T05:13:58;101368.06;;;4.81;58.02
60417;BME280;46263;44.726;10.396;2023-01-29T05:16:28;101377.75;;;4.86;58.43
60417;BME280;46263;44.726;10.396;2023-01-29T05:19:11;101375.94;;;4.83;58.36
60417;BME280;46263;44.726;10.396;2023-01-29T05:21:38;101382.22;;;4.83;58.72
60417;BME280;46263;44.726;10.396;2023-01-29T05:26:33;101380.81;;;4.79;59.18
60417;BME280;46263;44.726;10.396;2023-01-29T05:29:18;101377.75;;;4.77;59.27
60417;BME280;46263;44.726;10.396;2023-01-29T05:31:43;101377.75;;;4.68;59.19
60417;BME280;46263;44.726;10.396;2023-01-29T05:34:09;101386.31;;;4.61;59.20
60417;BME280;46263;44.726;10.396;2023-01-29T05:36:35;101391.56;;;4.59;59.17
60417;BME280;46263;44.726;10.396;2023-01-29T05:39:00;101383.88;;;4.63;59.06
60417;BME280;46263;44.726;10.396;2023-01-29T05:41:26;101385.25;;;4.59;58.95
60417;BME280;46263;44.726;10.396;2023-01-29T05:43:51;101394.00;;;4.57;59.51
60417;BME280;46263;44.726;10.396;2023-01-29T05:46:17;101393.09;;;4.60;59.37
60417;BME280;46263;44.726;10.396;2023-01-29T05:48:43;101388.78;;;4.59;58.98
60417;BME280;46263;44.726;10.396;2023-01-29T05:51:08;101389.69;;;4.56;58.94
60417;BME280;46263;44.726;10.396;2023-01-29T05:53:34;101389.22;;;4.58;59.29
60417;BME280;46263;44.726;10.396;2023-01-29T05:56:01;101395.69;;;4.55;58.87
60417;BME280;46263;44.726;10.396;2023-01-29T05:58:27;101392.94;;;4.55;59.10
60417;BME280;46263;44.726;10.396;2023-01-29T06:00:54;101390.31;;;4.51;58.79
60417;BME280;46263;44.726;10.396;2023-01-29T06:03:19;101402.31;;;4.57;58.77
60417;BME280;46263;44.726;10.396;2023-01-29T06:05:45;101404.28;;;4.57;58.76
60417;BME280;46263;44.726;10.396;2023-01-29T06:08:10;101404.16;;;4.60;58.96
60417;BME280;46263;44.726;10.396;2023-01-29T06:10:36;101411.22;;;4.61;58.69
60417;BME280;46263;44.726;10.396;2023-01-29T06:13:01;101413.22;;;4.61;59.22
60417;BME280;46263;44.726;10.396;2023-01-29T06:15:27;101414.78;;;4.62;58.69
60417;BME280;46263;44.726;10.396;2023-01-29T06:17:53;101415.69;;;4.59;58.92
60417;BME280;46263;44.726;10.396;2023-01-29T06:20:19;101409.53;;;4.55;58.87
60417;BME280;46263;44.726;10.396;2023-01-29T06:22:45;101406.91;;;4.51;58.74
60417;BME280;46263;44.726;10.396;2023-01-29T06:25:10;101412.44;;;4.51;58.79
60417;BME280;46263;44.726;10.396;2023-01-29T06:27:36;101413.03;;;4.46;59.38
60417;BME280;46263;44.726;10.396;2023-01-29T06:30:06;101418.41;;;4.50;59.18
60417;BME280;46263;44.726;10.396;2023-01-29T06:32:33;101429.63;;;4.46;59.05
60417;BME280;46263;44.726;10.396;2023-01-29T06:34:58;101428.34;;;4.38;58.75
60417;BME280;46263;44.726;10.396;2023-01-29T06:37:24;101427.94;;;4.49;59.11
60417;BME280;46263;44.726;10.396;2023-01-29T06:39:50;101429.03;;;4.51;59.33
60417;BME280;46263;44.726;10.396;2023-01-29T06:42:15;101427.53;;;4.59;58.80
60417;BME280;46263;44.726;10.396;2023-01-29T06:44:41;101431.53;;;4.58;58.84
60417;BME280;46263;44.726;10.396;2023-01-29T06:47:06;101440.16;;;4.60;59.09
60417;BME280;46263;44.726;10.396;2023-01-29T06:49:32;101434.47;;;4.64;58.70
60417;BME280;46263;44.726;10.396;2023-01-29T06:51:57;101436.13;;;4.61;59.01
60417;BME280;46263;44.726;10.396;2023-01-29T06:54:23;101438.28;;;4.57;59.30
60417;BME280;46263;44.726;10.396;2023-01-29T06:56:49;101450.56;;;4.56;59.20
60417;BME280;46263;44.726;10.396;2023-01-29T06:59:14;101449.69;;;4.59;58.78
60417;BME280;46263;44.726;10.396;2023-01-29T07:01:40;101448.13;;;4.58;59.29
60417;BME280;46263;44.726;10.396;2023-01-29T07:04:09;101451.03;;;4.55;59.13
60417;BME280;46263;44.726;10.396;2023-01-29T07:06:35;101447.06;;;4.56;58.89
60417;BME280;46263;44.726;10.396;2023-01-29T07:09:02;101449.69;;;4.59;58.74
60417;BME280;46263;44.726;10.396;2023-01-29T07:11:28;101450.75;;;4.62;58.99
60417;BME280;46263;44.726;10.396;2023-01-29T07:13:54;101460.91;;;4.65;58.61
60417;BME280;46263;44.726;10.396;2023-01-29T07:16:19;101456.63;;;4.64;58.95
60417;BME280;46263;44.726;10.396;2023-01-29T07:18:45;101460.16;;;4.64;58.76
60417;BME280;46263;44.726;10.396;2023-01-29T07:21:10;101458.03;;;4.68;59.04
60417;BME280;46263;44.726;10.396;2023-01-29T07:23:36;101463.09;;;4.70;58.63
60417;BME280;46263;44.726;10.396;2023-01-29T07:26:05;101466.66;;;4.79;58.70
60417;BME280;46263;44.726;10.396;2023-01-29T07:28:35;101461.59;;;4.77;58.86
60417;BME280;46263;44.726;10.396;2023-01-29T07:31:00;101473.41;;;4.78;58.52
60417;BME280;46263;44.726;10.396;2023-01-29T07:33:26;101471.25;;;4.73;58.57
60417;BME280;46263;44.726;10.396;2023-01-29T07:35:51;101473.13;;;4.76;58.48
60417;BME280;46263;44.726;10.396;2023-01-29T07:38:17;101477.88;;;4.75;58.58
60417;BME280;46263;44.726;10.396;2023-01-29T07:40:43;101472.50;;;4.81;58.40
60417;BME280;46263;44.726;10.396;2023-01-29T07:43:09;101478.38;;;4.83;58.57
60417;BME280;46263;44.726;10.396;2023-01-29T07:45:36;101473.13;;;4.85;58.32
60417;BME280;46263;44.726;10.396;2023-01-29T07:48:03;101476.50;;;4.80;59.08
60417;BME280;46263;44.726;10.396;2023-01-29T07:50:30;101481.72;;;4.78;59.13
60417;BME280;46263;44.726;10.396;2023-01-29T07:52:56;101485.88;;;4.82;58.84
60417;BME280;46263;44.726;10.396;2023-01-29T07:55:21;101493.16;;;4.89;59.02
60417;BME280;46263;44.726;10.396;2023-01-29T07:57:54;101503.91;;;4.87;59.25
60417;BME280;46263;44.726;10.396;2023-01-29T08:00:19;101502.50;;;4.82;59.62
60417;BME280;46263;44.726;10.396;2023-01-29T08:02:45;101514.53;;;4.97;59.53
60417;BME280;46263;44.726;10.396;2023-01-29T08:05:11;101510.59;;;5.07;58.90
60417;BME280;46263;44.726;10.396;2023-01-29T08:07:36;101516.44;;;5.09;58.95
60417;BME280;46263;44.726;10.396;2023-01-29T08:10:02;101522.88;;;5.06;59.02
60417;BME280;46263;44.726;10.396;2023-01-29T08:12:27;101521.44;;;4.93;59.12
60417;BME280;46263;44.726;10.396;2023-01-29T08:14:53;101529.44;;;4.82;59.85
60417;BME280;46263;44.726;10.396;2023-01-29T08:17:19;101533.41;;;4.81;60.10
60417;BME280;46263;44.726;10.396;2023-01-29T08:19:44;101534.69;;;4.89;59.81
60417;BME280;46263;44.726;10.396;2023-01-29T08:22:10;101537.50;;;4.98;59.40
60417;BME280;46263;44.726;10.396;2023-01-29T08:24:35;101538.28;;;5.07;59.90
60417;BME280;46263;44.726;10.396;2023-01-29T08:27:01;101548.78;;;5.21;59.01
60417;BME280;46263;44.726;10.396;2023-01-29T08:29:26;101550.38;;;5.31;59.35
60417;BME280;46263;44.726;10.396;2023-01-29T08:31:52;101547.31;;;5.47;58.66
60417;BME280;46263;44.726;10.396;2023-01-29T08:34:17;101548.25;;;5.62;58.79
60417;BME280;46263;44.726;10.396;2023-01-29T08:36:43;101554.59;;;5.62;58.62
60417;BME280;46263;44.726;10.396;2023-01-29T08:39:09;101553.81;;;5.62;58.68
60417;BME280;46263;44.726;10.396;2023-01-29T08:41:34;101549.97;;;5.59;58.42
60417;BME280;46263;44.726;10.396;2023-01-29T08:44:00;101554.28;;;5.69;58.25
60417;BME280;46263;44.726;10.396;2023-01-29T08:46:29;101554.03;;;5.76;58.64
60417;BME280;46263;44.726;10.396;2023-01-29T08:48:55;101559.69;;;5.73;58.51
60417;BME280;46263;44.726;10.396;2023-01-29T08:51:21;101562.78;;;5.75;59.31
60417;BME280;46263;44.726;10.396;2023-01-29T08:53:46;101565.75;;;5.80;59.68
60417;BME280;46263;44.726;10.396;2023-01-29T08:56:12;101565.75;;;5.89;59.47
60417;BME280;46263;44.726;10.396;2023-01-29T08:58:38;101566.50;;;5.90;59.41
60417;BME280;46263;44.726;10.396;2023-01-29T09:01:12;101572.06;;;5.99;58.99
60417;BME280;46263;44.726;10.396;2023-01-29T09:03:37;101579.31;;;6.05;57.98
60417;BME280;46263;44.726;10.396;2023-01-29T09:06:09;101570.38;;;6.19;57.42
60417;BME280;46263;44.726;10.396;2023-01-29T09:08:35;101567.28;;;6.35;57.46
60417;BME280;46263;44.726;10.396;2023-01-29T09:11:01;101565.72;;;6.34;56.39
60417;BME280;46263;44.726;10.396;2023-01-29T09:13:26;101574.38;;;6.45;56.78
60417;BME280;46263;44.726;10.396;2023-01-29T09:15:52;101577.13;;;6.45;56.38
60417;BME280;46263;44.726;10.396;2023-01-29T09:18:17;101567.28;;;6.35;56.08
60417;BME280;46263;44.726;10.396;2023-01-29T09:20:43;101576.97;;;6.48;57.14
60417;BME280;46263;44.726;10.396;2023-01-29T09:23:09;101578.34;;;6.62;56.82
60417;BME280;46263;44.726;10.396;2023-01-29T09:25:36;101583.75;;;6.56;56.58
60417;BME280;46263;44.726;10.396;2023-01-29T09:28:01;101584.03;;;6.67;56.45
60417;BME280;46263;44.726;10.396;2023-01-29T09:30:27;101579.22;;;6.77;55.70
60417;BME280;46263;44.726;10.396;2023-01-29T09:32:53;101583.56;;;6.78;55.67
60417;BME280;46263;44.726;10.396;2023-01-29T09:35:19;101586.31;;;6.78;55.31
60417;BME280;46263;44.726;10.396;2023-01-29T09:37:48;101588.13;;;6.90;55.73
60417;BME280;46263;44.726;10.396;2023-01-29T09:40:43;101589.34;;;6.98;55.62
60417;BME280;46263;44.726;10.396;2023-01-29T09:43:23;101579.28;;;7.00;55.66
60417;BME280;46263;44.726;10.396;2023-01-29T09:46:03;101581.28;;;7.09;55.84
60417;BME280;46263;44.726;10.396;2023-01-29T09:48:33;101584.06;;;7.09;56.42
60417;BME280;46263;44.726;10.396;2023-01-29T09:51:03;101586.84;;;7.09;55.61
60417;BME280;46263;44.726;10.396;2023-01-29T09:53:38;101576.47;;;7.09;56.33
60417;BME280;46263;44.726;10.396;2023-01-29T09:56:11;101578.13;;;7.24;56.55
60417;BME280;46263;44.726;10.396;2023-01-29T09:58:42;101570.63;;;7.39;56.02
60417;BME280;46263;44.726;10.396;2023-01-29T10:04:05;101573.59;;;7.36;55.01
60417;BME280;46263;44.726;10.396;2023-01-29T10:11:52;101572.19;;;7.40;56.44
60417;BME280;46263;44.726;10.396;2023-01-29T10:14:38;101574.56;;;7.56;55.65
60417;BME280;46263;44.726;10.396;2023-01-29T10:23:19;101560.53;;;7.74;55.91
60417;BME280;46263;44.726;10.396;2023-01-29T10:25:47;101560.53;;;7.74;56.15
60417;BME280;46263;44.726;10.396;2023-01-29T10:31:19;101564.59;;;7.88;55.18
60417;BME280;46263;44.726;10.396;2023-01-29T10:33:53;101551.75;;;7.90;55.23
60417;BME280;46263;44.726;10.396;2023-01-29T10:36:26;101551.38;;;7.97;54.96
60417;BME280;46263;44.726;10.396;2023-01-29T10:38:53;101544.50;;;8.07;54.94
60417;BME280;46263;44.726;10.396;2023-01-29T10:41:44;101547.56;;;7.94;54.56
60417;BME280;46263;44.726;10.396;2023-01-29T10:47:25;101540.56;;;8.13;54.50
60417;BME280;46263;44.726;10.396;2023-01-29T10:55:19;101539.94;;;8.33;53.61
60417;BME280;46263;44.726;10.396;2023-01-29T11:00:23;101533.63;;;8.47;52.76
60417;BME280;46263;44.726;10.396;2023-01-29T11:02:49;101521.53;;;8.50;52.73
60417;BME280;46263;44.726;10.396;2023-01-29T11:05:34;101508.75;;;8.58;52.67
60417;BME280;46263;44.726;10.396;2023-01-29T11:08:07;101513.66;;;8.63;52.88
60417;BME280;46263;44.726;10.396;2023-01-29T11:10:51;101501.06;;;8.67;53.15
60417;BME280;46263;44.726;10.396;2023-01-29T11:13:20;101506.75;;;8.58;53.23
60417;BME280;46263;44.726;10.396;2023-01-29T11:15:50;101494.59;;;8.75;52.86
60417;BME280;46263;44.726;10.396;2023-01-29T11:18:16;101486.69;;;8.88;51.99
60417;BME280;46263;44.726;10.396;2023-01-29T11:20:43;101484.59;;;8.83;52.35
60417;BME280;46263;44.726;10.396;2023-01-29T11:25:53;101474.28;;;8.89;52.41
60417;BME280;46263;44.726;10.396;2023-01-29T11:31:01;101476.13;;;8.92;52.34
60417;BME280;46263;44.726;10.396;2023-01-29T11:33:27;101466.09;;;9.00;52.46
60417;BME280;46263;44.726;10.396;2023-01-29T11:35:53;101470.59;;;9.12;52.44
60417;BME280;46263;44.726;10.396;2023-01-29T11:38:25;101464.41;;;9.23;52.09
60417;BME280;46263;44.726;10.396;2023-01-29T11:40:52;101457.38;;;9.27;52.05
60417;BME280;46263;44.726;10.396;2023-01-29T11:45:52;101457.38;;;9.27;51.91
60417;BME280;46263;44.726;10.396;2023-01-29T11:48:21;101443.50;;;9.33;51.80
60417;BME280;46263;44.726;10.396;2023-01-29T11:50:53;101440.41;;;9.31;52.09
60417;BME280;46263;44.726;10.396;2023-01-29T11:53:33;101432.94;;;9.42;51.89
60417;BME280;46263;44.726;10.396;2023-01-29T11:56:05;101436.84;;;9.50;51.37
60417;BME280;46263;44.726;10.396;2023-01-29T11:58:41;101425.41;;;9.48;51.71
60417;BME280;46263;44.726;10.396;2023-01-29T12:01:08;101415.06;;;9.54;51.24
60417;BME280;46263;44.726;10.396;2023-01-29T12:03:44;101414.66;;;9.61;51.44
60417;BME280;46263;44.726;10.396;2023-01-29T12:06:18;101415.41;;;9.61;51.20
60417;BME280;46263;44.726;10.396;2023-01-29T12:08:55;101401.69;;;9.58;51.17
60417;BME280;46263;44.726;10.396;2023-01-29T12:11:32;101395.88;;;9.61;51.03
60417;BME280;46263;44.726;10.396;2023-01-29T12:14:04;101393.91;;;9.67;50.61
60417;BME280;46263;44.726;10.396;2023-01-29T12:16:46;101394.53;;;9.77;51.43
60417;BME280;46263;44.726;10.396;2023-01-29T12:19:36;101387.75;;;9.83;51.12
60417;BME280;46263;44.726;10.396;2023-01-29T12:22:21;101381.00;;;9.70;50.63
60417;BME280;46263;44.726;10.396;2023-01-29T12:24:55;101379.31;;;9.78;50.76
60417;BME280;46263;44.726;10.396;2023-01-29T12:27:44;101371.03;;;9.89;50.74
60417;BME280;46263;44.726;10.396;2023-01-29T12:30:27;101370.81;;;9.92;50.48
60417;BME280;46263;44.726;10.396;2023-01-29T12:33:04;101374.22;;;10.02;50.06
60417;BME280;46263;44.726;10.396;2023-01-29T12:35:49;101363.72;;;10.17;49.77
60417;BME280;46263;44.726;10.396;2023-01-29T12:38:20;101358.59;;;10.15;49.50
60417;BME280;46263;44.726;10.396;2023-01-29T12:43:40;101357.44;;;10.27;49.88
60417;BME280;46263;44.726;10.396;2023-01-29T12:46:12;101357.50;;;10.32;49.85
60417;BME280;46263;44.726;10.396;2023-01-29T12:48:42;101348.75;;;10.20;49.00
60417;BME280;46263;44.726;10.396;2023-01-29T12:51:12;101353.44;;;10.33;49.51
60417;BME280;46263;44.726;10.396;2023-01-29T12:53:55;101342.78;;;10.37;49.26
60417;BME280;46263;44.726;10.396;2023-01-29T12:56:28;101337.75;;;10.41;49.17
60417;BME280;46263;44.726;10.396;2023-01-29T12:58:55;101337.50;;;10.45;48.95
60417;BME280;46263;44.726;10.396;2023-01-29T13:01:30;101340.13;;;10.54;48.15
60417;BME280;46263;44.726;10.396;2023-01-29T13:04:04;101334.28;;;10.57;48.13
60417;BME280;46263;44.726;10.396;2023-01-29T13:06:35;101334.56;;;10.65;48.85
60417;BME280;46263;44.726;10.396;2023-01-29T13:09:10;101335.88;;;10.69;49.11
60417;BME280;46263;44.726;10.396;2023-01-29T13:11:40;101328.75;;;10.68;48.23
60417;BME280;46263;44.726;10.396;2023-01-29T13:17:04;101327.00;;;10.76;49.67
60417;BME280;46263;44.726;10.396;2023-01-29T13:19:37;101327.28;;;10.78;49.14
60417;BME280;46263;44.726;10.396;2023-01-29T13:22:13;101319.84;;;10.64;48.85
60417;BME280;46263;44.726;10.396;2023-01-29T13:24:41;101318.84;;;10.73;48.86
60417;BME280;46263;44.726;10.396;2023-01-29T13:27:19;101326.50;;;10.72;47.72
60417;BME280;46263;44.726;10.396;2023-01-29T13:29:46;101325.47;;;10.75;47.65
60417;BME280;46263;44.726;10.396;2023-01-29T13:32:19;101323.22;;;10.79;47.58
60417;BME280;46263;44.726;10.396;2023-01-29T13:34:47;101324.47;;;10.78;48.58
60417;BME280;46263;44.726;10.396;2023-01-29T13:37:35;101320.38;;;10.74;48.53
60417;BME280;46263;44.726;10.396;2023-01-29T13:40:04;101313.97;;;10.62;48.42
60417;BME280;46263;44.726;10.396;2023-01-29T13:42:38;101310.59;;;10.47;48.71
60417;BME280;46263;44.726;10.396;2023-01-29T13:45:06;101313.38;;;10.47;48.07
60417;BME280;46263;44.726;10.396;2023-01-29T13:47:35;101313.31;;;10.36;48.26
60417;BME280;46263;44.726;10.396;2023-01-29T13:50:26;101315.03;;;10.29;48.95
60417;BME280;46263;44.726;10.396;2023-01-29T13:52:56;101316.28;;;10.28;49.17
60417;BME280;46263;44.726;10.396;2023-01-29T13:57:59;101310.25;;;10.34;49.89
60417;BME280;46263;44.726;10.396;2023-01-29T14:13:43;101308.88;;;10.19;48.99
60417;BME280;46263;44.726;10.396;2023-01-29T14:18:35;101303.28;;;10.19;48.88
60417;BME280;46263;44.726;10.396;2023-01-29T14:31:42;101293.63;;;10.15;49.96
60417;BME280;46263;44.726;10.396;2023-01-29T14:34:18;101291.84;;;10.17;50.12
60417;BME280;46263;44.726;10.396;2023-01-29T14:36:46;101288.31;;;10.17;50.41
60417;BME280;46263;44.726;10.396;2023-01-29T14:39:36;101283.47;;;10.17;51.61
60417;BME280;46263;44.726;10.396;2023-01-29T14:49:58;101289.28;;;10.14;50.07
60417;BME280;46263;44.726;10.396;2023-01-29T14:53:01;101287.75;;;10.13;50.73
60417;BME280;46263;44.726;10.396;2023-01-29T14:55:43;101283.19;;;10.15;50.71
60417;BME280;46263;44.726;10.396;2023-01-29T14:58:17;101286.78;;;10.16;51.17
60417;BME280;46263;44.726;10.396;2023-01-29T15:00:49;101282.72;;;10.17;50.78
60417;BME280;46263;44.726;10.396;2023-01-29T15:03:26;101279.41;;;10.18;50.99
60417;BME280;46263;44.726;10.396;2023-01-29T15:05:54;101276.13;;;10.20;50.85
60417;BME280;46263;44.726;10.396;2023-01-29T15:08:34;101271.06;;;10.24;51.02
60417;BME280;46263;44.726;10.396;2023-01-29T15:11:07;101270.28;;;10.18;51.79
60417;BME280;46263;44.726;10.396;2023-01-29T15:13:55;101270.28;;;10.18;50.83
60417;BME280;46263;44.726;10.396;2023-01-29T15:16:30;101269.50;;;10.17;50.51